Time;durP1;ratioP1;P1;durP2;ratioP2;P2;SDS_P1;SDS_P2;PMS_P1;PMS_P2;Temp;Humidity;BMP_temperature;BMP_pressure;BME280_temperature;BME280_humidity;BME280_pressure;Samples;Min_cycle;Max_cycle;Signal;HPM_P1;HPM_P2
2022/10/04 00:00:11;;;;;;;17.47;10.70;;;;;;;;;;5053500;28;20402;-48
2022/10/04 00:02:38;;;;;;;15.27;9.50;;;;;;;;;;5053396;28;20894;-48
2022/10/04 00:05:09;;;;;;;23.17;9.77;;;;;;;;;;5053488;28;20412;-47
2022/10/04 00:07:43;;;;;;;23.33;9.87;;;;;;;;;;5052991;28;20429;-45
2022/10/04 00:10:18;;;;;;;14.70;9.60;;;;;;;;;;5053438;28;20401;-47
2022/10/04 00:12:55;;;;;;;13.17;8.80;;;;;;;;;;5053935;28;20761;-47
2022/10/04 00:15:47;;;;;;;18.07;9.50;;;;;;;;;;5053295;28;20413;-45
2022/10/04 00:18:16;;;;;;;12.87;9.03;;;;;;;;;;5052272;28;20464;-47
2022/10/04 00:20:52;;;;;;;11.50;8.70;;;;;;;;;;5053119;28;21015;-47
2022/10/04 00:23:27;;;;;;;16.10;8.63;;;;;;;;;;5053355;28;20889;-46
2022/10/04 00:25:57;;;;;;;11.30;8.20;;;;;;;;;;5052691;28;20451;-46
2022/10/04 00:28:24;;;;;;;11.03;8.53;;;;;;;;;;5052677;28;20466;-47
2022/10/04 00:31:07;;;;;;;14.30;8.83;;;;;;;;;;5053058;28;20394;-48
2022/10/04 00:33:34;;;;;;;10.03;7.93;;;;;;;;;;5053205;28;20445;-46
2022/10/04 00:36:00;;;;;;;16.07;9.40;;;;;;;;;;5052467;28;20838;-48
2022/10/04 00:38:28;;;;;;;14.70;7.73;;;;;;;;;;5052916;28;20985;-48
2022/10/04 00:40:54;;;;;;;14.10;7.90;;;;;;;;;;5053063;28;20401;-46
2022/10/04 00:43:33;;;;;;;17.83;7.87;;;;;;;;;;5052748;28;21004;-48
2022/10/04 00:46:01;;;;;;;14.83;7.70;;;;;;;;;;5052470;28;20458;-48
2022/10/04 00:48:45;;;;;;;12.17;7.77;;;;;;;;;;5052752;28;20426;-48
2022/10/04 00:51:16;;;;;;;15.00;8.40;;;;;;;;;;5052580;28;20421;-48
2022/10/04 00:53:42;;;;;;;16.73;8.90;;;;;;;;;;5051772;28;20984;-47
2022/10/04 00:56:10;;;;;;;13.77;9.07;;;;;;;;;;5052076;28;20401;-45
2022/10/04 00:58:46;;;;;;;18.23;11.00;;;;;;;;;;5052546;28;20414;-47
2022/10/04 01:01:12;;;;;;;18.70;11.97;;;;;;;;;;5052085;28;20420;-48
2022/10/04 01:03:41;;;;;;;14.80;11.27;;;;;;;;;;5051583;28;20425;-46
2022/10/04 01:06:08;;;;;;;15.33;9.93;;;;;;;;;;5051713;28;20405;-46
2022/10/04 01:08:34;;;;;;;12.60;9.27;;;;;;;;;;5052092;28;20880;-47
2022/10/04 01:11:09;;;;;;;22.53;10.10;;;;;;;;;;5052089;28;20818;-47
2022/10/04 01:13:48;;;;;;;13.60;9.90;;;;;;;;;;5052225;28;20475;-45
2022/10/04 01:16:18;;;;;;;19.00;9.17;;;;;;;;;;5051758;28;21006;-46
2022/10/04 01:18:44;;;;;;;21.70;9.33;;;;;;;;;;5052128;28;20917;-44
2022/10/04 01:21:19;;;;;;;13.70;8.40;;;;;;;;;;5052492;28;20480;-45
2022/10/04 01:23:47;;;;;;;11.13;9.30;;;;;;;;;;5052001;28;20405;-45
2022/10/04 01:26:31;;;;;;;15.27;8.53;;;;;;;;;;5051990;28;20414;-47
2022/10/04 01:28:57;;;;;;;10.37;7.70;;;;;;;;;;5051744;28;20432;-47
2022/10/04 01:31:25;;;;;;;15.23;7.57;;;;;;;;;;5052105;28;20459;-48
2022/10/04 01:33:51;;;;;;;8.33;7.53;;;;;;;;;;5051761;28;20984;-47
2022/10/04 01:36:17;;;;;;;12.40;6.90;;;;;;;;;;5051035;28;20397;-48
2022/10/04 01:38:43;;;;;;;10.20;7.47;;;;;;;;;;5051818;28;20443;-48
2022/10/04 01:41:10;;;;;;;14.60;7.30;;;;;;;;;;5051674;28;20398;-47
2022/10/04 01:43:38;;;;;;;13.87;7.67;;;;;;;;;;5051900;28;20476;-47
2022/10/04 01:46:14;;;;;;;14.00;7.40;;;;;;;;;;5051300;28;20401;-46
2022/10/04 01:48:43;;;;;;;11.30;8.03;;;;;;;;;;5051647;28;20513;-47
2022/10/04 01:51:21;;;;;;;13.20;7.47;;;;;;;;;;5051651;28;20839;-48
2022/10/04 01:53:50;;;;;;;8.93;7.27;;;;;;;;;;5051332;28;20460;-47
2022/10/04 01:56:19;;;;;;;17.83;8.60;;;;;;;;;;5051198;28;20405;-47
2022/10/04 01:58:44;;;;;;;15.43;8.10;;;;;;;;;;5051493;28;20466;-44
2022/10/04 02:01:16;;;;;;;9.40;8.40;;;;;;;;;;5051650;28;20861;-47
2022/10/04 02:03:45;;;;;;;11.33;8.63;;;;;;;;;;5051126;28;20429;-48
2022/10/04 02:06:11;;;;;;;17.20;9.13;;;;;;;;;;5050845;28;20723;-48
2022/10/04 02:08:39;;;;;;;13.93;8.73;;;;;;;;;;5051472;28;20493;-45
2022/10/04 02:11:05;;;;;;;18.37;10.30;;;;;;;;;;5051327;28;20413;-48
2022/10/04 02:13:36;;;;;;;21.87;10.60;;;;;;;;;;5051281;28;20449;-48
2022/10/04 02:16:03;;;;;;;17.20;8.00;;;;;;;;;;5050944;28;20410;-47
2022/10/04 02:18:30;;;;;;;11.80;8.77;;;;;;;;;;5051304;28;20505;-47
2022/10/04 02:20:57;;;;;;;12.73;8.77;;;;;;;;;;5051325;28;20401;-45
2022/10/04 02:23:23;;;;;;;20.20;9.90;;;;;;;;;;5051201;28;20902;-47
2022/10/04 02:25:50;;;;;;;18.30;7.93;;;;;;;;;;5050831;28;20459;-47
2022/10/04 02:28:17;;;;;;;15.27;8.50;;;;;;;;;;5051318;28;20453;-49
2022/10/04 02:33:39;;;;;;;16.27;8.40;;;;;;;;;;5050987;28;20514;-45
2022/10/04 02:36:08;;;;;;;17.03;8.87;;;;;;;;;;5050731;28;20505;-47
2022/10/04 02:38:35;;;;;;;15.33;8.43;;;;;;;;;;5051151;28;20414;-46
2022/10/04 02:41:04;;;;;;;21.13;9.37;;;;;;;;;;5051161;28;20770;-47
2022/10/04 02:43:35;;;;;;;18.57;8.93;;;;;;;;;;5051026;28;20405;-49
2022/10/04 02:46:12;;;;;;;15.27;10.30;;;;;;;;;;5050715;28;20405;-48
2022/10/04 02:48:47;;;;;;;17.90;10.40;;;;;;;;;;5051165;28;20780;-48
2022/10/04 02:51:24;;;;;;;18.10;9.37;;;;;;;;;;5051200;28;20903;-46
2022/10/04 02:53:56;;;;;;;19.97;10.70;;;;;;;;;;5050972;28;20830;-46
2022/10/04 02:56:24;;;;;;;15.83;9.97;;;;;;;;;;5050559;28;20398;-47
2022/10/04 02:58:50;;;;;;;18.50;10.83;;;;;;;;;;5051146;28;20409;-46
2022/10/04 03:01:26;;;;;;;17.73;11.13;;;;;;;;;;5051150;28;20405;-45
2022/10/04 03:03:54;;;;;;;16.93;10.90;;;;;;;;;;5050824;28;20425;-47
2022/10/04 03:06:20;;;;;;;13.97;11.10;;;;;;;;;;5050473;28;20407;-46
2022/10/04 03:09:05;;;;;;;15.80;10.57;;;;;;;;;;5050803;28;20487;-46
2022/10/04 03:11:34;;;;;;;14.13;9.57;;;;;;;;;;5051054;28;20897;-48
2022/10/04 03:14:01;;;;;;;16.13;8.93;;;;;;;;;;5050763;28;20458;-47
2022/10/04 03:16:27;;;;;;;17.63;8.80;;;;;;;;;;5051940;28;20459;-48
2022/10/04 03:18:55;;;;;;;14.77;8.10;;;;;;;;;;5054218;28;20445;-46
2022/10/04 03:21:22;;;;;;;12.83;8.40;;;;;;;;;;5054517;28;20920;-47
2022/10/04 03:23:49;;;;;;;18.33;9.07;;;;;;;;;;5054380;28;20405;-47
2022/10/04 03:26:15;;;;;;;10.30;8.40;;;;;;;;;;5053770;28;20467;-47
2022/10/04 03:28:42;;;;;;;11.43;9.17;;;;;;;;;;5054255;28;20429;-45
2022/10/04 03:31:08;;;;;;;12.47;8.83;;;;;;;;;;5054097;28;20405;-46
2022/10/04 03:33:35;;;;;;;10.10;8.63;;;;;;;;;;5054109;28;20937;-47
2022/10/04 03:36:01;;;;;;;12.87;8.60;;;;;;;;;;5054039;28;20394;-44
2022/10/04 03:38:28;;;;;;;17.13;7.97;;;;;;;;;;5054274;28;20424;-44
2022/10/04 03:40:58;;;;;;;9.80;8.80;;;;;;;;;;5053955;28;20427;-44
2022/10/04 03:43:32;;;;;;;13.93;8.10;;;;;;;;;;5054113;28;20753;-45
2022/10/04 03:45:59;;;;;;;10.90;7.80;;;;;;;;;;5053128;28;20405;-44
2022/10/04 03:48:30;;;;;;;11.17;8.47;;;;;;;;;;5053798;28;20425;-44
2022/10/04 03:50:57;;;;;;;16.07;9.57;;;;;;;;;;5053841;28;20409;-44
2022/10/04 03:53:30;;;;;;;13.20;8.80;;;;;;;;;;5054029;28;20457;-45
2022/10/04 03:55:57;;;;;;;15.03;10.47;;;;;;;;;;5053063;28;20762;-44
2022/10/04 03:58:24;;;;;;;13.20;9.07;;;;;;;;;;5053684;28;20917;-44
2022/10/04 04:00:53;;;;;;;14.20;8.80;;;;;;;;;;5053383;28;20755;-45
2022/10/04 04:03:20;;;;;;;19.63;10.10;;;;;;;;;;5053683;28;20456;-45
2022/10/04 04:05:54;;;;;;;16.67;8.93;;;;;;;;;;5053270;28;20512;-44
2022/10/04 04:08:34;;;;;;;11.33;8.20;;;;;;;;;;5053493;28;20778;-44
2022/10/04 04:11:02;;;;;;;9.53;7.77;;;;;;;;;;5053423;28;20424;-44
2022/10/04 04:13:37;;;;;;;12.93;7.43;;;;;;;;;;5053451;28;20515;-44
2022/10/04 04:16:04;;;;;;;15.50;9.03;;;;;;;;;;5052714;28;20552;-44
2022/10/04 04:18:32;;;;;;;12.63;8.47;;;;;;;;;;5053416;28;20428;-44
2022/10/04 04:20:59;;;;;;;10.00;7.70;;;;;;;;;;5053280;28;20401;-44
2022/10/04 04:23:27;;;;;;;12.97;8.10;;;;;;;;;;5053374;28;20419;-44
2022/10/04 04:26:00;;;;;;;12.57;8.10;;;;;;;;;;5052394;28;20410;-44
2022/10/04 04:28:26;;;;;;;17.27;8.47;;;;;;;;;;5053070;28;20436;-44
2022/10/04 04:30:58;;;;;;;12.70;7.87;;;;;;;;;;5053228;28;20891;-45
2022/10/04 04:33:28;;;;;;;12.00;8.03;;;;;;;;;;5053180;28;20545;-44
2022/10/04 04:35:55;;;;;;;14.33;8.10;;;;;;;;;;5052297;28;20409;-44
2022/10/04 04:38:25;;;;;;;8.33;7.20;;;;;;;;;;5052826;28;20421;-44
2022/10/04 04:40:54;;;;;;;17.03;8.07;;;;;;;;;;5052920;28;20402;-45
2022/10/04 04:43:21;;;;;;;8.77;7.87;;;;;;;;;;5053047;28;20405;-45
2022/10/04 04:45:48;;;;;;;15.03;8.00;;;;;;;;;;5052508;28;20433;-44
2022/10/04 04:48:15;;;;;;;11.37;6.90;;;;;;;;;;5052427;28;20421;-44
2022/10/04 04:50:42;;;;;;;10.00;7.67;;;;;;;;;;5052410;28;20412;-44
2022/10/04 04:53:21;;;;;;;19.13;8.70;;;;;;;;;;5052789;28;20488;-44
2022/10/04 04:55:52;;;;;;;11.00;8.63;;;;;;;;;;5052326;28;20392;-44
2022/10/04 04:58:20;;;;;;;12.90;7.60;;;;;;;;;;5052010;28;20420;-45
2022/10/04 05:00:49;;;;;;;12.83;7.30;;;;;;;;;;5052417;28;20409;-45
2022/10/04 05:03:18;;;;;;;11.53;7.23;;;;;;;;;;5052374;28;20423;-44
2022/10/04 05:05:46;;;;;;;10.10;6.27;;;;;;;;;;5052121;28;20406;-44
2022/10/04 05:08:22;;;;;;;7.70;6.53;;;;;;;;;;5051981;28;20948;-44
2022/10/04 05:11:08;;;;;;;19.50;7.30;;;;;;;;;;5052318;28;20412;-44
2022/10/04 05:13:33;;;;;;;11.07;6.80;;;;;;;;;;5050539;28;20453;-44
2022/10/04 05:16:00;;;;;;;13.73;8.13;;;;;;;;;;5050973;28;20424;-44
2022/10/04 05:18:29;;;;;;;8.77;7.87;;;;;;;;;;5052085;28;20471;-44
2022/10/04 05:20:56;;;;;;;11.67;7.90;;;;;;;;;;5051925;28;20430;-45
2022/10/04 05:23:22;;;;;;;9.70;8.67;;;;;;;;;;5052234;28;20405;-44
2022/10/04 05:25:49;;;;;;;17.20;8.77;;;;;;;;;;5051809;28;20441;-44
2022/10/04 05:28:16;;;;;;;10.83;7.67;;;;;;;;;;5051640;28;20422;-45
2022/10/04 05:30:52;;;;;;;14.67;9.40;;;;;;;;;;5052244;28;20409;-44
2022/10/04 05:33:23;;;;;;;20.63;8.83;;;;;;;;;;5051854;28;20415;-44
2022/10/04 05:36:03;;;;;;;19.37;8.17;;;;;;;;;;5051830;28;20404;-44
2022/10/04 05:38:47;;;;;;;16.13;7.90;;;;;;;;;;5051403;28;20424;-44
2022/10/04 05:41:16;;;;;;;17.90;8.37;;;;;;;;;;5052054;28;20401;-44
2022/10/04 05:43:46;;;;;;;14.23;7.40;;;;;;;;;;5051798;28;20776;-45
2022/10/04 05:46:15;;;;;;;17.70;7.50;;;;;;;;;;5051063;28;20393;-44
2022/10/04 05:48:42;;;;;;;10.87;7.20;;;;;;;;;;5051899;28;20479;-44
2022/10/04 05:51:22;;;;;;;13.63;7.70;;;;;;;;;;5051612;28;20811;-44
2022/10/04 05:53:48;;;;;;;10.73;7.00;;;;;;;;;;5051704;28;20448;-44
2022/10/04 05:56:36;;;;;;;13.83;6.60;;;;;;;;;;5051081;28;20393;-44
2022/10/04 05:59:11;;;;;;;11.23;6.90;;;;;;;;;;5051347;28;20501;-44
2022/10/04 06:01:37;;;;;;;9.40;7.13;;;;;;;;;;5051673;28;20897;-44
2022/10/04 06:04:08;;;;;;;12.97;7.60;;;;;;;;;;5051607;28;20437;-44
2022/10/04 06:06:48;;;;;;;12.10;8.97;;;;;;;;;;5051284;28;20408;-44
2022/10/04 06:09:25;;;;;;;13.60;7.33;;;;;;;;;;5051423;28;20881;-44
2022/10/04 06:12:06;;;;;;;10.40;6.80;;;;;;;;;;5051625;28;20812;-44
2022/10/04 06:14:51;;;;;;;10.47;7.17;;;;;;;;;;5051417;28;20452;-44
2022/10/04 06:17:17;;;;;;;14.80;8.40;;;;;;;;;;5050724;28;20418;-44
2022/10/04 06:19:51;;;;;;;10.20;7.20;;;;;;;;;;5051262;28;20596;-44
2022/10/04 06:22:17;;;;;;;10.97;6.93;;;;;;;;;;5051614;28;20897;-44
2022/10/04 06:24:55;;;;;;;9.00;6.40;;;;;;;;;;5051504;28;20456;-44
2022/10/04 06:27:21;;;;;;;16.33;7.80;;;;;;;;;;5050835;28;20483;-44
2022/10/04 06:29:59;;;;;;;17.23;9.80;;;;;;;;;;5050990;28;20885;-44
2022/10/04 06:32:38;;;;;;;21.97;8.97;;;;;;;;;;5051233;28;20792;-44
2022/10/04 06:35:12;;;;;;;16.60;10.37;;;;;;;;;;5031202;28;20961;-45
2022/10/04 06:37:38;;;;;;;15.43;10.07;;;;;;;;;;5030871;28;20425;-44
2022/10/04 06:40:19;;;;;;;19.43;10.50;;;;;;;;;;5031087;28;20398;-45
2022/10/04 06:42:51;;;;;;;12.23;8.50;;;;;;;;;;5031276;28;20404;-45
2022/10/04 06:45:18;;;;;;;16.73;8.60;;;;;;;;;;5031310;28;20429;-44
2022/10/04 06:47:53;;;;;;;11.33;7.67;;;;;;;;;;5030609;28;20422;-44
2022/10/04 06:50:32;;;;;;;16.00;8.20;;;;;;;;;;5031160;28;20405;-44
2022/10/04 06:53:11;;;;;;;16.63;7.30;;;;;;;;;;5035223;28;20394;-44
2022/10/04 06:56:04;;;;;;;15.77;8.10;;;;;;;;;;5035090;28;20500;-45
2022/10/04 06:58:33;;;;;;;10.60;7.00;;;;;;;;;;5034554;28;20410;-44
2022/10/04 07:00:59;;;;;;;9.00;8.10;;;;;;;;;;5034626;28;20461;-45
2022/10/04 07:03:34;;;;;;;10.63;7.20;;;;;;;;;;5034799;28;20838;-45
2022/10/04 07:06:05;;;;;;;9.23;6.33;;;;;;;;;;5034679;28;20426;-45
2022/10/04 07:08:40;;;;;;;11.37;6.20;;;;;;;;;;5034603;28;20436;-45
2022/10/04 07:11:20;;;;;;;11.07;6.60;;;;;;;;;;5034508;28;20967;-44
2022/10/04 07:13:55;;;;;;;9.03;6.03;;;;;;;;;;5034708;28;20946;-45
2022/10/04 07:16:39;;;;;;;11.40;6.20;;;;;;;;;;5034112;28;20401;-44
2022/10/04 07:19:25;;;;;;;10.00;6.17;;;;;;;;;;5034091;28;20432;-44
2022/10/04 07:22:14;;;;;;;19.37;5.37;;;;;;;;;;5034497;28;20402;-44
2022/10/04 07:24:56;;;;;;;6.63;5.17;;;;;;;;;;5034666;28;20407;-44
2022/10/04 07:27:34;;;;;;;8.20;5.50;;;;;;;;;;5034136;28;20418;-44
2022/10/04 07:30:03;;;;;;;10.93;5.30;;;;;;;;;;5033971;28;20449;-45
2022/10/04 07:32:34;;;;;;;7.77;5.63;;;;;;;;;;5034430;28;20486;-45
2022/10/04 07:35:12;;;;;;;11.50;5.10;;;;;;;;;;5034090;28;20467;-45
2022/10/04 07:37:48;;;;;;;8.47;5.50;;;;;;;;;;5033902;28;20422;-45
2022/10/04 07:40:23;;;;;;;7.30;5.47;;;;;;;;;;5033606;28;20400;-45
2022/10/04 07:43:16;;;;;;;8.53;4.87;;;;;;;;;;5038350;28;20494;-44
2022/10/04 07:45:42;;;;;;;8.17;5.17;;;;;;;;;;5051499;28;20456;-44
2022/10/04 07:48:22;;;;;;;8.03;5.50;;;;;;;;;;5053373;28;20964;-44
2022/10/04 07:51:08;;;;;;;5.23;4.73;;;;;;;;;;5053807;28;20814;-44
2022/10/04 07:53:51;;;;;;;11.13;5.20;;;;;;;;;;5053889;28;20478;-44
2022/10/04 07:56:21;;;;;;;10.17;4.83;;;;;;;;;;5053315;28;20489;-44
2022/10/04 07:58:47;;;;;;;5.17;4.63;;;;;;;;;;5053440;28;20916;-46
2022/10/04 08:01:13;;;;;;;11.27;7.03;;;;;;;;;;5053521;28;20409;-45
2022/10/04 08:03:56;;;;;;;13.37;4.93;;;;;;;;;;5053433;28;20427;-45
2022/10/04 08:06:22;;;;;;;8.43;4.73;;;;;;;;;;5053203;28;20404;-44
2022/10/04 08:09:26;;;;;;;10.90;5.17;;;;;;;;;;5053316;28;20427;-45
2022/10/04 08:11:52;;;;;;;7.70;4.03;;;;;;;;;;5031178;28;20439;-44
2022/10/04 08:14:18;;;;;;;8.50;5.90;;;;;;;;;;5031283;28;20880;-45
2022/10/04 08:16:50;;;;;;;11.43;4.80;;;;;;;;;;5040887;28;20389;-44
2022/10/04 08:19:19;;;;;;;8.83;4.60;;;;;;;;;;5052985;28;20459;-44
2022/10/04 08:21:50;;;;;;;4.87;4.37;;;;;;;;;;5053380;28;20900;-44
2022/10/04 08:24:34;;;;;;;11.73;5.13;;;;;;;;;;5053307;28;20407;-45
2022/10/04 08:27:09;;;;;;;11.00;4.20;;;;;;;;;;5052671;28;20393;-45
2022/10/04 08:29:53;;;;;;;10.17;4.40;;;;;;;;;;5052791;28;20403;-44
2022/10/04 08:32:37;;;;;;;7.63;6.00;;;;;;;;;;5053281;28;20405;-44
2022/10/04 08:35:06;;;;;;;8.63;4.70;;;;;;;;;;5052896;28;20607;-44
2022/10/04 08:37:39;;;;;;;7.20;4.23;;;;;;;;;;5052784;28;20417;-45
2022/10/04 08:40:14;;;;;;;7.40;4.43;;;;;;;;;;5052677;28;20397;-44
2022/10/04 08:42:52;;;;;;;7.10;4.90;;;;;;;;;;5053071;28;20427;-44
2022/10/04 08:45:33;;;;;;;5.67;4.80;;;;;;;;;;5052750;28;20441;-44
2022/10/04 08:48:21;;;;;;;13.97;4.87;;;;;;;;;;5052504;28;20839;-44
2022/10/04 08:51:06;;;;;;;7.23;4.47;;;;;;;;;;5052493;28;20432;-44
2022/10/04 08:53:50;;;;;;;5.17;3.90;;;;;;;;;;5053085;28;20493;-45
2022/10/04 08:56:30;;;;;;;9.20;4.20;;;;;;;;;;5052167;28;20706;-45
2022/10/04 08:59:15;;;;;;;5.20;4.00;;;;;;;;;;5052497;28;20388;-45
2022/10/04 09:01:59;;;;;;;3.67;3.20;;;;;;;;;;5052523;28;20396;-45
2022/10/04 09:04:37;;;;;;;4.00;3.67;;;;;;;;;;5052518;28;20416;-45
2022/10/04 09:07:12;;;;;;;6.00;3.43;;;;;;;;;;5049462;28;20458;-45
2022/10/04 09:09:45;;;;;;;7.50;3.77;;;;;;;;;;5031157;28;20405;-45
2022/10/04 09:12:23;;;;;;;6.57;3.53;;;;;;;;;;5031595;28;20398;-46
2022/10/04 09:14:50;;;;;;;4.73;3.10;;;;;;;;;;5031671;28;20463;-45
2022/10/04 09:17:26;;;;;;;5.27;3.43;;;;;;;;;;5031764;28;20422;-45
2022/10/04 09:19:55;;;;;;;4.70;3.37;;;;;;;;;;5032106;28;20401;-45
2022/10/04 09:22:25;;;;;;;5.00;2.77;;;;;;;;;;5032529;28;20815;-45
2022/10/04 09:25:07;;;;;;;7.43;3.43;;;;;;;;;;5032224;28;20890;-45
2022/10/04 09:27:35;;;;;;;5.73;3.27;;;;;;;;;;5032116;28;20422;-45
2022/10/04 09:30:03;;;;;;;3.60;2.90;;;;;;;;;;5031792;28;20433;-45
2022/10/04 09:32:41;;;;;;;8.07;3.63;;;;;;;;;;5032338;28;20417;-45
2022/10/04 09:35:07;;;;;;;4.20;3.83;;;;;;;;;;5031772;28;20507;-45
2022/10/04 09:37:48;;;;;;;3.10;2.80;;;;;;;;;;5032238;28;20433;-45
2022/10/04 09:40:34;;;;;;;6.07;3.07;;;;;;;;;;5031704;28;20407;-45
2022/10/04 09:43:06;;;;;;;6.90;2.70;;;;;;;;;;5032101;28;20760;-46
2022/10/04 09:45:58;;;;;;;2.90;2.70;;;;;;;;;;5031662;28;20399;-45
2022/10/04 09:48:27;;;;;;;2.83;2.63;;;;;;;;;;5031667;28;20426;-45
2022/10/04 09:51:06;;;;;;;3.60;2.87;;;;;;;;;;5031640;28;20402;-45
2022/10/04 09:53:46;;;;;;;4.97;2.90;;;;;;;;;;5031895;28;20540;-45
2022/10/04 09:56:21;;;;;;;4.40;2.90;;;;;;;;;;5031330;28;20814;-45
2022/10/04 09:59:07;;;;;;;3.30;2.80;;;;;;;;;;5031336;28;20487;-44
2022/10/04 10:01:52;;;;;;;3.40;3.10;;;;;;;;;;5031657;28;20398;-45
2022/10/04 10:04:50;;;;;;;5.00;2.70;;;;;;;;;;5031749;28;20407;-45
2022/10/04 10:07:29;;;;;;;3.90;3.00;;;;;;;;;;5019082;28;20438;-45
2022/10/04 10:16:11;;;;;;;4.10;2.47;;;;;;;;;;5031563;28;20405;-45
2022/10/04 10:18:57;;;;;;;3.73;2.43;;;;;;;;;;5031663;28;20457;-44
2022/10/04 10:21:35;;;;;;;6.60;2.93;;;;;;;;;;5031494;28;20390;-45
2022/10/04 10:24:04;;;;;;;4.57;2.57;;;;;;;;;;5031792;28;21125;-46
2022/10/04 10:26:36;;;;;;;5.40;2.80;;;;;;;;;;5034742;28;20394;-47
2022/10/04 10:29:12;;;;;;;6.40;3.10;;;;;;;;;;5035279;28;20409;-46
2022/10/04 10:31:56;;;;;;;3.17;2.87;;;;;;;;;;5035435;28;20398;-44
2022/10/04 10:34:58;;;;;;;8.17;2.50;;;;;;;;;;5035387;28;20972;-45
2022/10/04 10:37:42;;;;;;;7.10;3.00;;;;;;;;;;5012601;28;20487;-45
2022/10/04 10:40:11;;;;;;;4.30;2.50;;;;;;;;;;5033741;28;20446;-45
2022/10/04 10:42:46;;;;;;;6.60;2.83;;;;;;;;;;5035317;28;20478;-45
2022/10/04 10:45:20;;;;;;;5.70;2.80;;;;;;;;;;5035381;28;20405;-44
2022/10/04 10:47:59;;;;;;;4.60;3.20;;;;;;;;;;5034791;28;20960;-45
2022/10/04 10:50:58;;;;;;;4.97;2.93;;;;;;;;;;5034992;28;20428;-45
2022/10/04 10:53:28;;;;;;;3.63;2.70;;;;;;;;;;5034885;28;20421;-45
2022/10/04 10:56:16;;;;;;;2.60;2.33;;;;;;;;;;5034888;28;20451;-45
2022/10/04 10:58:57;;;;;;;3.00;2.70;;;;;;;;;;5034965;28;20425;-45
2022/10/04 11:01:30;;;;;;;3.90;2.70;;;;;;;;;;5034849;28;20448;-45
2022/10/04 11:04:15;;;;;;;2.77;2.20;;;;;;;;;;5034976;28;20428;-44
2022/10/04 11:06:47;;;;;;;6.17;2.80;;;;;;;;;;5034223;28;20448;-45
2022/10/04 11:09:19;;;;;;;4.10;2.40;;;;;;;;;;5034553;28;20421;-45
2022/10/04 11:12:04;;;;;;;5.67;4.10;;;;;;;;;;5034708;28;20424;-45
2022/10/04 11:14:48;;;;;;;3.30;2.40;;;;;;;;;;5046694;28;20455;-45
2022/10/04 11:17:33;;;;;;;3.37;2.20;;;;;;;;;;5054047;28;20415;-45
2022/10/04 11:20:01;;;;;;;2.90;2.60;;;;;;;;;;5054419;28;20423;-45
2022/10/04 11:22:46;;;;;;;6.10;2.73;;;;;;;;;;5054370;28;20401;-45
2022/10/04 11:25:33;;;;;;;4.90;2.60;;;;;;;;;;5054296;28;20904;-45
2022/10/04 11:28:07;;;;;;;4.13;2.80;;;;;;;;;;5054047;28;20418;-44
2022/10/04 11:31:00;;;;;;;6.23;2.50;;;;;;;;;;5054269;28;20490;-45
2022/10/04 11:33:41;;;;;;;3.30;2.40;;;;;;;;;;5054204;28;20389;-45
2022/10/04 11:36:26;;;;;;;3.83;2.30;;;;;;;;;;5053706;28;20524;-43
2022/10/04 11:39:06;;;;;;;3.57;2.40;;;;;;;;;;5053964;28;20467;-44
2022/10/04 11:41:38;;;;;;;2.70;2.50;;;;;;;;;;5054307;28;20909;-45
2022/10/04 11:44:21;;;;;;;5.30;2.50;;;;;;;;;;5053970;28;20828;-42
2022/10/04 11:46:50;;;;;;;5.50;2.80;;;;;;;;;;5053833;28;20396;-43
2022/10/04 11:49:35;;;;;;;3.13;2.00;;;;;;;;;;5053746;28;20811;-44
2022/10/04 11:52:19;;;;;;;3.00;2.27;;;;;;;;;;5054036;28;20401;-43
2022/10/04 11:55:06;;;;;;;6.83;2.00;;;;;;;;;;5053920;28;20795;-45
2022/10/04 11:57:38;;;;;;;2.43;2.23;;;;;;;;;;5053429;28;20779;-45
2022/10/04 12:00:23;;;;;;;3.10;2.33;;;;;;;;;;5053751;28;20393;-48
2022/10/04 12:02:49;;;;;;;3.63;2.40;;;;;;;;;;5053496;28;20459;-47
2022/10/04 12:05:18;;;;;;;1.73;1.63;;;;;;;;;;5053559;28;20397;-48
2022/10/04 12:07:50;;;;;;;5.27;2.27;;;;;;;;;;5053251;28;20436;-49
2022/10/04 12:10:22;;;;;;;3.00;1.93;;;;;;;;;;5053608;28;20488;-49
2022/10/04 12:12:48;;;;;;;3.60;2.50;;;;;;;;;;5053562;28;20397;-48
2022/10/04 12:15:30;;;;;;;3.17;2.53;;;;;;;;;;5053421;28;20449;-48
2022/10/04 12:18:16;;;;;;;8.13;2.27;;;;;;;;;;5053082;28;20428;-49
2022/10/04 12:20:46;;;;;;;2.63;2.10;;;;;;;;;;5053444;28;20492;-48
2022/10/04 12:23:12;;;;;;;4.43;2.10;;;;;;;;;;5050883;28;20893;-48
2022/10/04 12:25:45;;;;;;;3.00;2.40;;;;;;;;;;5053134;28;20401;-44
2022/10/04 12:28:22;;;;;;;4.80;1.80;;;;;;;;;;5052756;28;20202;-48
2022/10/04 12:31:07;;;;;;;8.47;1.97;;;;;;;;;;5053098;28;20556;-49
2022/10/04 12:33:44;;;;;;;1.90;1.80;;;;;;;;;;5052879;28;20388;-46
2022/10/04 12:36:45;;;;;;;4.33;2.00;;;;;;;;;;5053106;28;20407;-47
2022/10/04 12:39:28;;;;;;;3.57;1.77;;;;;;;;;;5030532;28;20801;-45
2022/10/04 12:42:09;;;;;;;2.90;1.70;;;;;;;;;;5051195;28;20417;-48
2022/10/04 12:44:50;;;;;;;2.73;2.33;;;;;;;;;;5045004;28;20441;-49
2022/10/04 12:47:34;;;;;;;4.80;2.20;;;;;;;;;;5049254;28;20432;-47
2022/10/04 12:50:06;;;;;;;2.90;1.90;;;;;;;;;;5052685;28;20389;-43
2022/10/04 12:52:40;;;;;;;3.27;2.03;;;;;;;;;;5052897;28;20397;-46
2022/10/04 12:55:27;;;;;;;2.60;2.10;;;;;;;;;;5052512;28;20452;-48
2022/10/04 12:57:58;;;;;;;2.67;2.00;;;;;;;;;;5052496;28;20412;-47
2022/10/04 13:00:32;;;;;;;2.20;2.00;;;;;;;;;;5051286;28;20401;-48
2022/10/04 13:03:17;;;;;;;2.47;2.17;;;;;;;;;;5052797;28;20461;-48
2022/10/04 13:06:01;;;;;;;3.00;1.97;;;;;;;;;;5052377;28;20432;-47
2022/10/04 13:08:46;;;;;;;2.93;2.10;;;;;;;;;;5052174;28;20925;-46
2022/10/04 13:11:19;;;;;;;2.07;1.80;;;;;;;;;;5052722;28;20432;-45
2022/10/04 13:13:55;;;;;;;2.07;1.87;;;;;;;;;;5052139;28;20451;-45
2022/10/04 13:16:33;;;;;;;2.97;2.10;;;;;;;;;;5051859;28;20458;-45
2022/10/04 13:19:11;;;;;;;3.40;2.10;;;;;;;;;;5052053;28;20410;-46
2022/10/04 13:21:55;;;;;;;3.50;2.10;;;;;;;;;;5052182;28;20401;-46
2022/10/04 13:24:28;;;;;;;4.23;2.13;;;;;;;;;;5050407;28;20435;-47
2022/10/04 13:27:27;;;;;;;4.60;1.80;;;;;;;;;;5051405;28;20411;-48
2022/10/04 13:30:01;;;;;;;2.23;2.03;;;;;;;;;;5040065;28;20426;-47
2022/10/04 13:32:29;;;;;;;4.00;2.13;;;;;;;;;;5051943;28;20923;-46
2022/10/04 13:34:55;;;;;;;2.47;2.03;;;;;;;;;;5051999;28;20527;-48
2022/10/04 13:37:40;;;;;;;2.77;1.77;;;;;;;;;;5051487;28;20829;-46
2022/10/04 13:40:24;;;;;;;5.77;2.10;;;;;;;;;;5051824;28;20253;-48
2022/10/04 13:43:11;;;;;;;2.43;2.03;;;;;;;;;;5051927;28;20480;-46
2022/10/04 13:45:39;;;;;;;2.17;1.97;;;;;;;;;;5051600;28;20409;-48
2022/10/04 13:48:12;;;;;;;2.40;1.50;;;;;;;;;;5051611;28;20504;-48
2022/10/04 13:50:44;;;;;;;2.83;1.90;;;;;;;;;;5051832;28;20397;-46
2022/10/04 13:59:01;;;;;;;4.40;3.30;;;;;;;;;;5051470;28;20458;-47
2022/10/04 14:01:39;;;;;;;2.70;2.07;;;;;;;;;;5051926;28;20424;-46
2022/10/04 14:04:25;;;;;;;2.00;1.80;;;;;;;;;;5051933;28;20228;-49
2022/10/04 14:07:14;;;;;;;1.90;1.70;;;;;;;;;;5051162;28;20389;-42
2022/10/04 14:09:45;;;;;;;3.00;1.77;;;;;;;;;;5050738;28;20417;-42
2022/10/04 14:12:11;;;;;;;5.73;2.13;;;;;;;;;;5050265;28;20773;-42
2022/10/04 14:15:02;;;;;;;2.20;2.00;;;;;;;;;;5051272;28;20460;-43
2022/10/04 14:17:48;;;;;;;3.47;1.70;;;;;;;;;;5051043;28;20195;-43
2022/10/04 14:20:23;;;;;;;2.03;1.90;;;;;;;;;;5051437;28;20404;-43
2022/10/04 14:22:52;;;;;;;2.40;1.90;;;;;;;;;;5051932;28;20407;-43
2022/10/04 14:25:38;;;;;;;2.80;2.13;;;;;;;;;;5049349;28;20408;-42
2022/10/04 14:28:30;;;;;;;5.20;2.17;;;;;;;;;;5048849;28;20429;-45
2022/10/04 14:30:56;;;;;;;3.63;2.20;;;;;;;;;;5049953;28;20410;-44
2022/10/04 14:33:28;;;;;;;2.87;1.73;;;;;;;;;;5051155;28;20405;-44
2022/10/04 14:36:12;;;;;;;5.23;2.40;;;;;;;;;;5050897;28;20250;-45
2022/10/04 14:38:54;;;;;;;2.17;1.97;;;;;;;;;;5050842;28;20420;-45
2022/10/04 14:41:40;;;;;;;2.03;1.80;;;;;;;;;;5051428;28;20484;-44
2022/10/04 14:44:24;;;;;;;2.23;2.00;;;;;;;;;;5051244;28;20831;-44
2022/10/04 14:47:12;;;;;;;2.37;2.03;;;;;;;;;;5050347;28;20397;-45
2022/10/04 14:49:57;;;;;;;2.93;2.00;;;;;;;;;;5030860;28;20402;-49
2022/10/04 14:52:24;;;;;;;4.33;2.20;;;;;;;;;;5030932;28;20409;-47
2022/10/04 14:54:56;;;;;;;15.83;3.10;;;;;;;;;;5031003;28;20485;-43
2022/10/04 14:57:41;;;;;;;4.40;2.70;;;;;;;;;;5030138;28;20453;-42
2022/10/04 15:00:28;;;;;;;7.13;2.63;;;;;;;;;;5030286;28;20455;-44
2022/10/04 15:02:55;;;;;;;4.73;2.60;;;;;;;;;;5030834;28;20429;-44
2022/10/04 15:05:42;;;;;;;7.00;2.47;;;;;;;;;;5031340;28;20402;-44
2022/10/04 15:08:21;;;;;;;7.53;3.07;;;;;;;;;;5030709;28;20417;-44
2022/10/04 15:10:55;;;;;;;2.70;2.50;;;;;;;;;;5029792;28;20440;-44
2022/10/04 15:13:27;;;;;;;9.23;2.80;;;;;;;;;;5033987;28;20445;-44
2022/10/04 15:15:58;;;;;;;4.30;3.60;;;;;;;;;;5034125;28;20812;-44
2022/10/04 15:18:40;;;;;;;2.80;2.60;;;;;;;;;;5033877;28;20410;-44
2022/10/04 15:21:11;;;;;;;11.17;3.00;;;;;;;;;;5034349;28;20398;-44
2022/10/04 15:23:42;;;;;;;3.70;3.33;;;;;;;;;;5034563;28;20390;-44
2022/10/04 15:26:31;;;;;;;6.90;3.13;;;;;;;;;;5034002;28;20398;-44
2022/10/04 15:29:10;;;;;;;6.80;2.83;;;;;;;;;;5034117;28;20421;-44
2022/10/04 15:31:45;;;;;;;6.33;3.20;;;;;;;;;;5034422;28;20404;-44
2022/10/04 15:34:33;;;;;;;4.10;3.00;;;;;;;;;;5034245;28;20476;-44